Flight Track Log - Related Links

Times and Time Zones

All times are in EDT time to prevent confusion due to time zone crossing. See the AAL1144 flight status page for this flight to view local times or setup timezone preferences in your user account.

Time Position Orientation Groundspeed Altitude Reporting Facility
EDT Latitude Longitude Course Direction KTS MPH feet Rate Location/Type
Mon 08:00:52 PM 33.6470 -117.8870 205° Southwest 166 191 1,800  Level FlightAware ADS-B
Mon 08:01:17 PM 33.6260 -117.8920 191° South 196 226 2,700 2,182 Climbing FlightAware ADS-B
Mon 08:01:47 PM 33.5950 -117.8970 188° South 238 274 3,800 2,400 Climbing FlightAware ADS-B
Mon 08:02:27 PM 33.5490 -117.8890 172° South 275 316 5,500 3,086 Climbing FlightAware ADS-B
Mon 08:02:57 PM 33.5170 -117.8650 148° Southeast 281 323 7,400 3,900 Climbing FlightAware ADS-B
Mon 08:03:07 PM 33.5080 -117.8520 130° Southeast 287 330 8,100 4,080 Climbing FlightAware ADS-B
Mon 08:03:22 PM 33.5010 -117.8280 109° East 298 343 9,100 3,333 Climbing FlightAware ADS-B
Mon 08:03:52 PM 33.5070 -117.7800 81° East 316 364 10,600 2,143 Climbing FlightAware ADS-B
Mon 08:04:32 PM 33.5270 -117.7050 72° East 375 432 11,600 2,047 Climbing FlightAware ADS-B
Mon 08:05:17 PM 33.5510 -117.6110 73° East 400 460 13,500 1,906 Climbing FlightAware ADS-B
Mon 08:05:57 PM 33.5740 -117.5230 73° East 413 475 14,300 565 Climbing FlightAware ADS-B
Mon 08:06:42 PM 33.5860 -117.4260 82° East 410 472 14,300 776 Level FlightAware ADS-B
Mon 08:07:22 PM 33.5900 -117.3350 87° East 419 482 15,400 2,400 Climbing FlightAware ADS-B
Mon 08:08:02 PM 33.5930 -117.2450 88° East 422 486 17,500 2,682 Climbing FlightAware ADS-B
Mon 08:08:47 PM 33.5960 -117.1290 88° East 451 519 19,200 2,329 Climbing FlightAware ADS-B
Mon 08:09:27 PM 33.5990 -117.0290 88° East 463 533 20,800 2,471 Climbing FlightAware ADS-B
Mon 08:10:12 PM 33.6030 -116.9130 88° East 471 542 22,700 2,259 Climbing FlightAware ADS-B
Mon 08:10:52 PM 33.6070 -116.8090 87° East 482 555 24,000 1,725 Climbing FlightAware ADS-B
Mon 08:11:32 PM 33.6110 -116.7000 87° East 494 568 25,000 706 Climbing FlightAware ADS-B
Mon 08:12:17 PM 33.6150 -116.5740 88° East 492 566 25,000  Level FlightAware ADS-B
Mon 08:12:47 PM 33.6170 -116.5270 87° East 492 566 25,000  Level FlightAware ADS-B
Mon 08:13:38 PM 33.6219 -116.3592 70° East 496 571 25,000  Level Los Angeles Center
Mon 08:13:42 PM 33.6230 -116.3950 87° East 492 566 25,000  Level FlightAware ADS-B
Mon 08:14:22 PM 33.6270 -116.3020 87° East 492 566 25,000 103 Level FlightAware ADS-B
Mon 08:14:40 PM 33.6269 -116.1942 88° East 495 570 25,100  Climbing Los Angeles Center
Mon 08:15:02 PM 33.6310 -116.2090 87° East 492 566 25,000 -97 Descending FlightAware ADS-B
Mon 08:15:42 PM 33.6350 -116.1160 87° East 492 566 25,000 2,850 Level FlightAware ADS-B
Mon 08:15:42 PM 33.6683 -116.0325 73° East 501 577 26,900  Climbing Los Angeles Center
Mon 08:16:22 PM 33.6390 -116.0240 87° East 492 566 25,000 1,935 Descending FlightAware ADS-B
Mon 08:16:44 PM 33.7208 -115.8739 68° East 509 586 28,900 2,857 Climbing Los Angeles Center
Mon 08:17:46 PM 33.7728 -115.7150 68° East 511 588 29,000 1,113 Climbing Los Angeles Center
Mon 08:18:48 PM 33.8231 -115.5550 69° East 511 588 31,200 1,008 Climbing Los Angeles Center
Mon 08:19:00 PM 33.7798 -115.6780 70° East  Level FlightAware Approximate
Mon 08:25:42 PM 34.1650 -114.4580 69° East 501 577 37,000  Level FlightAware ADS-B
Mon 08:26:42 PM 34.2090 -114.3020 71° East 499 574 37,000  Level FlightAware ADS-B
Mon 08:27:42 PM 34.2530 -114.1450 71° East 498 573 37,000  Level FlightAware ADS-B
Mon 08:28:22 PM 34.2840 -114.0320 72° East 497 572 37,000  Level FlightAware ADS-B
Mon 08:29:02 PM 34.3100 -113.9380 71° East 497 572 37,000  Level FlightAware ADS-B
Mon 08:29:47 PM 34.3450 -113.8110 72° East 496 571 37,000  Level FlightAware ADS-B
Mon 08:30:27 PM 34.3800 -113.6850 71° East 497 572 37,000  Level FlightAware ADS-B
Mon 08:31:12 PM 34.4120 -113.5690 71° East 496 571 37,000  Level FlightAware ADS-B
Mon 08:31:52 PM 34.4410 -113.4620 72° East 497 572 37,000  Level FlightAware ADS-B
Mon 08:32:32 PM 34.4700 -113.3560 72° East 497 572 37,000  Level FlightAware ADS-B
Mon 08:33:17 PM 34.5020 -113.2380 72° East 498 573 37,000  Level FlightAware ADS-B
Mon 08:33:57 PM 34.5300 -113.1330 72° East 498 573 37,000  Level FlightAware ADS-B
Mon 08:34:37 PM 34.5580 -113.0270 72° East 498 573 37,000  Level FlightAware ADS-B
Mon 08:35:22 PM 34.5900 -112.9050 72° East 497 572 37,000  Level FlightAware ADS-B
Mon 08:36:02 PM 34.6190 -112.7990 72° East 496 571 37,000  Level FlightAware ADS-B
Mon 08:36:47 PM 34.6490 -112.6830 73° East 496 571 37,000  Level FlightAware ADS-B
Mon 08:37:27 PM 34.6780 -112.5750 72° East 496 571 37,000  Level FlightAware ADS-B
Mon 08:38:12 PM 34.7090 -112.4550 73° East 496 571 37,000  Level FlightAware ADS-B
Mon 08:38:52 PM 34.7330 -112.3520 74° East 497 572 37,000  Level FlightAware ADS-B
Mon 08:39:32 PM 34.7580 -112.2390 75° East 493 567 37,000  Level FlightAware ADS-B
Mon 08:40:17 PM 34.7850 -112.1200 75° East 496 571 37,000  Level FlightAware ADS-B
Mon 08:40:57 PM 34.8090 -112.0120 75° East 498 573 37,000  Level FlightAware ADS-B
Mon 08:41:42 PM 34.8380 -111.8890 74° East 497 572 37,000  Level FlightAware ADS-B
Mon 08:42:22 PM 34.8620 -111.7810 75° East 498 573 37,000  Level FlightAware ADS-B
Mon 08:43:02 PM 34.8860 -111.6750 75° East 499 574 37,000  Level FlightAware ADS-B
Mon 08:43:47 PM 34.9130 -111.5560 75° East 498 573 37,000  Level FlightAware ADS-B
Mon 08:44:27 PM 34.9370 -111.4450 75° East 495 570 37,000  Level FlightAware ADS-B
Mon 08:45:12 PM 34.9640 -111.3230 75° East 497 572 37,000  Level FlightAware ADS-B
Mon 08:45:52 PM 34.9880 -111.2130 75° East 497 572 37,000  Level FlightAware ADS-B
Mon 08:46:32 PM 35.0110 -111.1070 75° East 494 568 37,000  Level FlightAware ADS-B
Mon 08:47:17 PM 35.0370 -110.9870 75° East 494 568 37,000  Level FlightAware ADS-B
Mon 08:47:57 PM 35.0610 -110.8800 75° East 496 571 37,000  Level FlightAware ADS-B
Mon 08:48:42 PM 35.0870 -110.7570 75° East 498 573 37,000  Level FlightAware ADS-B
Mon 08:49:22 PM 35.1100 -110.6500 75° East 499 574 37,000  Level FlightAware ADS-B
Mon 08:50:02 PM 35.1330 -110.5410 76° East 499 574 37,000  Level FlightAware ADS-B
Mon 08:50:47 PM 35.1590 -110.4180 75° East 499 574 37,000  Level FlightAware ADS-B
Mon 08:51:27 PM 35.1830 -110.3090 75° East 499 574 37,000  Level FlightAware ADS-B
Mon 08:52:12 PM 35.2080 -110.1870 76° East 497 572 37,000  Level FlightAware ADS-B
Mon 08:52:52 PM 35.2300 -110.0850 75° East 498 573 37,000  Level FlightAware ADS-B
Mon 08:53:32 PM 35.2550 -109.9660 76° East 496 571 37,000  Level FlightAware ADS-B
Mon 08:54:17 PM 35.2790 -109.8460 76° East 495 570 37,000  Level FlightAware ADS-B
Mon 08:54:57 PM 35.3010 -109.7390 76° East 495 570 37,000  Level FlightAware ADS-B
Mon 08:55:37 PM 35.3240 -109.6290 76° East 494 568 37,000  Level FlightAware ADS-B
Mon 08:56:22 PM 35.3480 -109.5080 76° East 492 566 37,000  Level FlightAware ADS-B
Mon 08:57:02 PM 35.3690 -109.4060 76° East 491 565 37,000  Level FlightAware ADS-B
Mon 08:57:47 PM 35.3950 -109.2770 76° East 490 564 37,000  Level FlightAware ADS-B
Mon 08:58:27 PM 35.4170 -109.1680 76° East 490 564 37,000  Level FlightAware ADS-B
Mon 08:59:07 PM 35.4370 -109.0710 76° East 490 564 37,000  Level FlightAware ADS-B
Mon 09:00:07 PM 35.4690 -108.9120 76° East 488 562 37,000  Level FlightAware ADS-B
Mon 09:00:47 PM 35.4870 -108.8200 76° East 488 562 37,000  Level FlightAware ADS-B
Mon 09:01:27 PM 35.5060 -108.7290 76° East 488 562 37,000  Level FlightAware ADS-B
Mon 09:02:07 PM 35.5240 -108.6370 76° East 488 562 37,000  Level FlightAware ADS-B
Mon 09:02:52 PM 35.5850 -108.4730 65° Northeast 478 550 37,000  Level FlightAware ADS-B
Mon 09:03:37 PM 35.6160 -108.3580 72° East 478 550 37,000  Level FlightAware ADS-B
Mon 09:04:17 PM 35.6420 -108.2570 72° East 478 550 37,000  Level FlightAware ADS-B
Mon 09:04:57 PM 35.6700 -108.1530 72° East 477 549 37,000  Level FlightAware ADS-B
Mon 09:05:42 PM 35.7010 -108.0390 71° East 476 548 37,000  Level FlightAware ADS-B
Mon 09:06:22 PM 35.7290 -107.9330 72° East 474 545 37,000  Level FlightAware ADS-B
Mon 09:07:02 PM 35.7530 -107.8430 72° East 472 543 37,000  Level FlightAware ADS-B
Mon 09:07:47 PM 35.7850 -107.7180 72° East 470 541 37,000  Level FlightAware ADS-B
Mon 09:08:27 PM 35.8120 -107.6170 72° East 466 536 37,000  Level FlightAware ADS-B
Mon 09:09:12 PM 35.8420 -107.5020 72° East 464 534 37,000  Level FlightAware ADS-B
Mon 09:09:52 PM 35.8680 -107.4000 73° East 465 535 37,000  Level FlightAware ADS-B
Mon 09:10:37 PM 35.8960 -107.2910 72° East 468 539 37,000  Level FlightAware ADS-B
Mon 09:11:17 PM 35.9230 -107.1860 72° East 471 542 37,000  Level FlightAware ADS-B
Mon 09:12:02 PM 35.9530 -107.0690 72° East 473 544 37,000  Level FlightAware ADS-B
Mon 09:12:42 PM 35.9780 -106.9740 72° East 471 542 37,000  Level FlightAware ADS-B
Mon 09:13:27 PM 36.0060 -106.8640 73° East 471 542 37,000  Level FlightAware ADS-B
Mon 09:14:07 PM 36.0330 -106.7580 72° East 473 544 37,000  Level FlightAware ADS-B
Mon 09:15:12 PM 36.0760 -106.5830 73° East 482 555 37,000  Level FlightAware ADS-B
Mon 09:15:52 PM 36.1020 -106.4830 72° East 482 555 37,000  Level FlightAware ADS-B
Mon 09:16:42 PM 36.1340 -106.3510 73° East 483 556 37,000  Level FlightAware ADS-B
Mon 09:17:22 PM 36.1560 -106.2610 73° East 483 556 37,000  Level FlightAware ADS-B
Mon 09:18:02 PM 36.1880 -106.1370 72° East 484 557 37,000  Level FlightAware ADS-B
Mon 09:18:42 PM 36.2120 -106.0480 71° East 484 557 37,000  Level FlightAware ADS-B
Mon 09:19:22 PM 36.2350 -105.9580 72° East 484 557 37,000  Level FlightAware ADS-B
Mon 09:20:12 PM 36.2650 -105.8460 72° East 484 557 37,000  Level FlightAware ADS-B
Mon 09:20:52 PM 36.2880 -105.7560 72° East 484 557 37,000  Level FlightAware ADS-B
Mon 09:21:32 PM 36.3120 -105.6660 72° East 484 557 37,000  Level FlightAware ADS-B
Mon 09:22:12 PM 36.3350 -105.5760 72° East 484 557 37,000  Level FlightAware ADS-B
Mon 09:22:52 PM 36.3590 -105.4860 72° East 484 557 37,000  Level FlightAware ADS-B
Mon 09:23:42 PM 36.3880 -105.3740 72° East 484 557 37,000  Level FlightAware ADS-B
Mon 09:24:22 PM 36.4120 -105.2840 72° East 484 557 37,000  Level FlightAware ADS-B
Mon 09:25:02 PM 36.4350 -105.1940 72° East 484 557 37,000  Level FlightAware ADS-B
Mon 09:25:42 PM 36.4590 -105.1040 72° East 484 557 37,000  Level FlightAware ADS-B
Mon 09:26:22 PM 36.4820 -105.0140 72° East 484 557 37,000  Level FlightAware ADS-B
Mon 09:27:12 PM 36.5120 -104.9010 72° East 484 557 37,000  Level FlightAware ADS-B
Mon 09:27:45 PM 36.5800 -104.6311 72° East 468 539 37,000  Level Kansas City Center
Mon 09:28:46 PM 36.6333 -104.4839 66° East 467 537 37,000  Level Kansas City Center
Mon 09:29:48 PM 36.6875 -104.3397 65° Northeast 463 533 37,000  Level Kansas City Center
Mon 09:30:49 PM 36.7422 -104.1850 66° East 459 528 37,000  Level Albuquerque Center
Mon 09:31:50 PM 36.7919 -104.0478 66° East 457 526 37,000  Level Albuquerque Center
Mon 09:37:56 PM 37.1120 -103.1390 66° East 463 533 37,000  Level FlightAware ADS-B
Mon 09:38:27 PM 37.1388 -103.0620 66° East 464 534 37,000  Level FlightAware ADS-B
Mon 09:39:00 PM 37.1667 -102.9820 66° East 464 534 37,000  Level FlightAware ADS-B
Mon 09:39:31 PM 37.1935 -102.9040 67° East 463 533 37,000  Level FlightAware ADS-B
Mon 09:40:03 PM 37.2200 -102.8280 66° East 462 532 37,000  Level FlightAware ADS-B
Mon 09:40:37 PM 37.2495 -102.7420 67° East 462 532 37,000  Level FlightAware ADS-B
Mon 09:41:09 PM 37.2761 -102.6650 67° East 462 532 37,000  Level FlightAware ADS-B
Mon 09:41:39 PM 37.3013 -102.5910 67° East 462 532 37,000  Level FlightAware ADS-B
Mon 09:42:05 PM 37.3175 -102.5442 67° East 461 531 37,000  Level Kansas City Center
Mon 09:43:06 PM 37.3656 -102.4025 67° East 461 531 37,000  Level Kansas City Center
Mon 09:44:06 PM 37.4219 -102.2372 67° East 460 529 37,000  Level Albuquerque Center
Mon 09:45:07 PM 37.4697 -102.0958 67° East 460 529 37,000  Level Albuquerque Center
Mon 09:46:09 PM 37.5172 -101.9533 67° East 460 529 37,000  Level Albuquerque Center
Mon 09:47:11 PM 37.5722 -101.7878 67° East 459 528 37,000  Level Kansas City Center
Mon 09:48:13 PM 37.6197 -101.6467 67° East 457 526 37,000  Level Kansas City Center
Mon 09:49:14 PM 37.6742 -101.4806 67° East 458 527 37,000  Level Kansas City Center
Mon 09:50:15 PM 37.7206 -101.3386 68° East 456 525 37,000  Level Kansas City Center
Mon 09:51:17 PM 37.7672 -101.1947 68° East 458 527 37,000  Level Kansas City Center
Mon 09:52:18 PM 37.8222 -101.0267 67° East 459 528 37,000  Level Kansas City Center
Mon 09:53:19 PM 37.8697 -100.8806 68° East 461 531 37,000  Level Kansas City Center
Mon 09:54:20 PM 37.9158 -100.7356 68° East 460 529 37,000  Level Kansas City Center
Mon 09:55:22 PM 37.9719 -100.5689 67° East 458 527 37,000  Level Kansas City Center
Mon 09:56:23 PM 38.0211 -100.4272 66° East 458 527 37,000  Level Kansas City Center
Mon 09:57:24 PM 38.0764 -100.2614 67° East 457 526 37,000  Level Kansas City Center
Mon 09:58:26 PM 38.1236 -100.1203 67° East 455 524 37,000  Level Kansas City Center
Mon 09:59:27 PM 38.1706 -99.9794 67° East 454 522 37,000  Level Kansas City Center
Mon 10:01:29 PM 38.2706 -99.6758 67° East 450 518 37,000  Level Kansas City Center
Mon 10:02:31 PM 38.3169 -99.5364 67° East 448 516 37,000  Level Kansas City Center
Mon 10:03:32 PM 38.3647 -99.3925 67° East 446 513 37,000  Level Kansas City Center
Mon 10:04:33 PM 38.4125 -99.2447 68° East 447 514 37,000  Level Kansas City Center
Mon 10:05:34 PM 38.4614 -99.0972 67° East 450 518 37,000  Level Kansas City Center
Mon 10:06:35 PM 38.5089 -98.9483 68° East 451 519 37,000  Level Kansas City Center
Mon 10:07:37 PM 38.5692 -98.7661 67° East 461 531 37,000  Level Kansas City Center
Mon 10:08:38 PM 38.6158 -98.6147 68° East 460 529 37,000  Level Kansas City Center
Mon 10:09:39 PM 38.6653 -98.4628 67° East 461 531 37,000  Level Kansas City Center
Mon 10:10:40 PM 38.7131 -98.3089 68° East 464 534 37,000  Level Kansas City Center
Mon 10:11:41 PM 38.7606 -98.1556 68° East 464 534 37,000  Level Kansas City Center
Mon 10:12:42 PM 38.8092 -98.0025 68° East 464 534 37,000  Level Kansas City Center
Mon 10:13:44 PM 38.8556 -97.8503 69° East 460 529 37,000  Level Kansas City Center
Mon 10:14:45 PM 38.9022 -97.7017 68° East 455 524 37,000  Level Kansas City Center
Mon 10:15:46 PM 38.9531 -97.5294 69° East 459 528 37,000  Level Kansas City Center
Mon 10:16:47 PM 38.9897 -97.3781 73° East 463 533 37,000  Level Kansas City Center
Mon 10:17:48 PM 39.0292 -97.2308 71° East 457 526 37,000  Level Kansas City Center
Mon 10:18:49 PM 39.0764 -97.0586 70° East 457 526 37,000  Level Kansas City Center
Mon 10:21:53 PM 39.1972 -96.5861 72° East 456 525 37,000  Level Kansas City Center
Mon 10:22:54 PM 39.2328 -96.4378 73° East 453 521 37,000  Level Kansas City Center
Mon 10:23:55 PM 39.2775 -96.2686 71° East 456 525 37,000  Level Kansas City Center
Mon 10:24:32 PM 39.2650 -96.3150 70° East 455 524 37,000  Level FlightAware ADS-B
Mon 10:27:00 PM 39.3464 -95.9339 72° East  Level FlightAware Approximate
Mon 10:29:47 PM 39.4680 -95.4970 71° East 459 528 37,000  Level FlightAware ADS-B
Mon 10:31:47 PM 39.5400 -95.2010 72° East 456 525 37,000  Level FlightAware ADS-B
Mon 10:33:27 PM 39.5940 -94.9750 73° East 454 522 37,000  Level FlightAware ADS-B
Mon 10:34:22 PM 39.6760 -94.6300 73° East 447 514 37,000  Level FlightAware ADS-B
Mon 10:35:07 PM 39.7040 -94.5130 73° East 446 513 37,000  Level FlightAware ADS-B
Mon 10:35:47 PM 39.7280 -94.4100 73° East 446 513 37,000  Level FlightAware ADS-B
Mon 10:36:27 PM 39.7510 -94.3100 73° East 444 511 37,000  Level FlightAware ADS-B
Mon 10:37:12 PM 39.7780 -94.1960 73° East 444 511 37,000  Level FlightAware ADS-B
Mon 10:37:52 PM 39.8010 -94.0940 74° East 443 510 37,000  Level FlightAware ADS-B
Mon 10:38:32 PM 39.8240 -93.9940 73° East 443 510 37,000  Level FlightAware ADS-B
Mon 10:39:17 PM 39.8510 -93.8750 74° East 443 510 37,000  Level FlightAware ADS-B
Mon 10:39:57 PM 39.8740 -93.7730 74° East 444 511 37,000  Level FlightAware ADS-B
Mon 10:40:42 PM 39.9000 -93.6610 73° East 445 512 37,000  Level FlightAware ADS-B
Mon 10:41:22 PM 39.9230 -93.5590 74° East 445 512 37,000  Level FlightAware ADS-B
Mon 10:42:07 PM 39.9510 -93.4390 73° East 445 512 37,000  Level FlightAware ADS-B
Mon 10:42:47 PM 39.9830 -93.3430 66° East 446 513 37,000  Level FlightAware ADS-B
Mon 10:43:27 PM 40.0160 -93.2460 66° East 446 513 37,000  Level FlightAware ADS-B
Mon 10:44:12 PM 40.0520 -93.1370 67° East 448 516 37,000  Level FlightAware ADS-B
Mon 10:44:52 PM 40.0860 -93.0360 66° East 448 516 37,000  Level FlightAware ADS-B
Mon 10:45:32 PM 40.1180 -92.9390 67° East 448 516 37,000  Level FlightAware ADS-B
Mon 10:46:17 PM 40.1570 -92.8200 67° East 450 518 37,000  Level FlightAware ADS-B
Mon 10:46:57 PM 40.1890 -92.7230 67° East 451 519 37,000  Level FlightAware ADS-B
Mon 10:47:42 PM 40.2260 -92.6100 67° East 451 519 37,000  Level FlightAware ADS-B
Mon 10:48:22 PM 40.2570 -92.5140 67° East 450 518 37,000  Level FlightAware ADS-B
Mon 10:49:02 PM 40.2890 -92.4160 67° East 449 517 37,000  Level FlightAware ADS-B
Mon 10:49:42 PM 40.3230 -92.3120 67° East 449 517 37,000  Level FlightAware ADS-B
Mon 10:50:27 PM 40.3600 -92.1960 67° East 447 514 37,000  Level FlightAware ADS-B
Mon 10:51:12 PM 40.3940 -92.0900 67° East 441 507 37,000  Level FlightAware ADS-B
Mon 10:51:52 PM 40.4260 -91.9910 67° East 440 506 37,000  Level FlightAware ADS-B
Mon 10:52:32 PM 40.4570 -91.8910 68° East 438 504 37,000  Level FlightAware ADS-B
Mon 10:53:07 PM 40.4820 -91.8120 67° East 438 504 37,000  Level FlightAware ADS-B
Mon 10:53:57 PM 40.5250 -91.6790 67° East 438 504 37,000 -758 Level FlightAware ADS-B
Mon 10:54:42 PM 40.5590 -91.5720 67° East 427 491 35,800 -2,118 Descending FlightAware ADS-B
Mon 10:55:22 PM 40.5870 -91.4790 68° East 430 495 34,000 -2,100 Descending FlightAware ADS-B
Mon 10:56:02 PM 40.6180 -91.3810 67° East 429 494 33,000 -706 Descending FlightAware ADS-B
Mon 10:56:47 PM 40.6510 -91.2780 67° East 431 496 33,000  Level FlightAware ADS-B
Mon 10:57:27 PM 40.6840 -91.1710 68° East 435 501 33,000  Level FlightAware ADS-B
Mon 10:58:12 PM 40.7170 -91.0630 68° East 434 499 33,000  Level FlightAware ADS-B
Mon 10:58:52 PM 40.7470 -90.9670 68° East 434 499 33,000  Level FlightAware ADS-B
Mon 10:59:32 PM 40.7770 -90.8670 68° East 433 498 33,000  Level FlightAware ADS-B
Mon 11:00:17 PM 40.8100 -90.7590 68° East 431 496 33,000  Level FlightAware ADS-B
Mon 11:00:57 PM 40.8400 -90.6630 68° East 415 478 33,000 -225 Level FlightAware ADS-B
Mon 11:01:37 PM 40.8670 -90.5730 68° East 423 487 32,700 -847 Descending FlightAware ADS-B
Mon 11:02:22 PM 40.9010 -90.4610 68° East 428 493 31,800 -1,482 Descending FlightAware ADS-B
Mon 11:03:02 PM 40.9310 -90.3600 69° East 432 497 30,600 -1,835 Descending FlightAware ADS-B
Mon 11:03:47 PM 40.9640 -90.2490 68° East 437 503 29,200 -1,835 Descending FlightAware ADS-B
Mon 11:04:27 PM 40.9940 -90.1480 68° East 437 503 28,000 -1,765 Descending FlightAware ADS-B
Mon 11:05:12 PM 41.0260 -90.0420 68° East 444 511 26,700 -1,765 Descending FlightAware ADS-B
Mon 11:05:52 PM 41.0570 -89.9360 69° East 449 517 25,500 -1,875 Descending FlightAware ADS-B
Mon 11:06:32 PM 41.0870 -89.8370 68° East 441 507 24,200 -1,976 Descending FlightAware ADS-B
Mon 11:07:17 PM 41.1200 -89.7220 69° East 430 495 22,700 -1,906 Descending FlightAware ADS-B
Mon 11:07:57 PM 41.1490 -89.6240 69° East 423 487 21,500 -1,800 Descending FlightAware ADS-B
Mon 11:08:37 PM 41.1830 -89.5310 64° Northeast 412 474 20,300 -1,765 Descending FlightAware ADS-B
Mon 11:09:22 PM 41.2220 -89.4340 62° Northeast 404 465 19,000 -1,694 Descending FlightAware ADS-B
Mon 11:10:02 PM 41.2570 -89.3470 62° Northeast 399 459 17,900 -1,694 Descending FlightAware ADS-B
Mon 11:10:47 PM 41.2970 -89.2490 61° Northeast 394 453 16,600 -1,765 Descending FlightAware ADS-B
Mon 11:11:27 PM 41.3310 -89.1650 62° Northeast 386 444 15,400 -1,694 Descending FlightAware ADS-B
Mon 11:12:12 PM 41.3670 -89.0730 62° Northeast 385 443 14,200 -1,694 Descending FlightAware ADS-B
Mon 11:12:52 PM 41.4000 -88.9900 62° Northeast 369 425 13,000 -1,650 Descending FlightAware ADS-B
Mon 11:13:32 PM 41.4320 -88.9120 61° Northeast 355 409 12,000 -1,482 Descending FlightAware ADS-B
Mon 11:14:17 PM 41.4660 -88.8250 62° Northeast 330 380 10,900 -776 Descending FlightAware ADS-B
Mon 11:14:57 PM 41.4930 -88.7580 62° Northeast 287 330 10,900  Level FlightAware ADS-B
Mon 11:15:37 PM 41.5170 -88.6970 62° Northeast 280 322 10,900  Level FlightAware ADS-B
Mon 11:16:22 PM 41.5430 -88.6300 63° Northeast 279 321 10,900  Level FlightAware ADS-B
Mon 11:17:02 PM 41.5670 -88.5690 62° Northeast 280 322 10,900  Level FlightAware ADS-B
Mon 11:17:47 PM 41.5950 -88.4990 62° Northeast 278 320 10,900 -353 Level FlightAware ADS-B
Mon 11:18:27 PM 41.6280 -88.4450 51° Northeast 281 323 10,400 -1,029 Descending FlightAware ADS-B
Mon 11:18:57 PM 41.6610 -88.4220 28° Northeast 278 320 9,700 -1,467 Descending FlightAware ADS-B
Mon 11:19:12 PM 41.6780 -88.4110 26° Northeast 279 321 9,300 -1,650 Descending FlightAware ADS-B
Mon 11:19:37 PM 41.7070 -88.3910 27° Northeast 276 318 8,600 -1,500 Descending FlightAware ADS-B
Mon 11:19:52 PM 41.7230 -88.3800 27° Northeast 276 318 8,300 -1,600 Descending FlightAware ADS-B
Mon 11:20:22 PM 41.7580 -88.3570 26° Northeast 275 316 7,400 -1,800 Descending FlightAware ADS-B
Mon 11:20:32 PM 41.7700 -88.3490 26° Northeast 278 320 7,100 -1,650 Descending FlightAware ADS-B
Mon 11:21:02 PM 41.8040 -88.3260 27° Northeast 275 316 6,300 -1,467 Descending FlightAware ADS-B
Mon 11:21:17 PM 41.8210 -88.3150 26° Northeast 276 318 6,000 -1,500 Descending FlightAware ADS-B
Mon 11:21:42 PM 41.8510 -88.2950 26° Northeast 276 318 5,300 -1,527 Descending FlightAware ADS-B
Mon 11:22:12 PM 41.8830 -88.2730 27° Northeast 275 316 4,600 -1,091 Descending FlightAware ADS-B
Mon 11:22:37 PM 41.9120 -88.2540 26° Northeast 261 300 4,300 -700 Descending FlightAware ADS-B
Mon 11:23:12 PM 41.9440 -88.2220 37° Northeast 240 276 3,900 -400 Descending FlightAware ADS-B
Mon 11:23:37 PM 41.9540 -88.1910 67° East 229 264 3,900 -218 Level FlightAware ADS-B
Mon 11:24:07 PM 41.9670 -88.1520 66° East 217 250 3,700 -667 Descending FlightAware ADS-B
Mon 11:24:22 PM 41.9690 -88.1330 82° East 212 244 3,400 -1,080 Descending FlightAware ADS-B
Mon 11:24:57 PM 41.9680 -88.0890 92° East 187 215 2,800 -923 Descending FlightAware ADS-B
Mon 11:25:27 PM 41.9690 -88.0580 88° East 157 181 2,400 -800 Descending FlightAware ADS-B
Mon 11:25:57 PM 41.9690 -88.0310 90° East 141 162 2,000 -764 Descending FlightAware ADS-B
Mon 11:26:22 PM 41.9690 -88.0130 90° East 137 158 1,700 -686 Descending FlightAware ADS-B
Mon 11:27:07 PM 41.9690 -87.9730 90° East 129 148 1,200 -686 Descending FlightAware ADS-B
Mon 11:27:32 PM 41.9690 -87.9530 90° East 138 159 900 -800 Descending FlightAware ADS-B
Mon 11:27:52 PM 41.9690 -87.9320 90° East 148 170 600 -900 Descending FlightAware ADS-B

Login

Don't have an account? Register now (free) for customized features, flight alerts, and more!